Time;durP1;ratioP1;P1;durP2;ratioP2;P2;SDS_P1;SDS_P2;PMS_P1;PMS_P2;Temp;Humidity;BMP_temperature;BMP_pressure;BME280_temperature;BME280_humidity;BME280_pressure;Samples;Min_cycle;Max_cycle;Signal;HPM_P1;HPM_P2
2023/05/18 00:02:05;;;;;;;15.88;2.35;;;;;;;7.45;100.00;102425.66;4954804;28;20393;-78
2023/05/18 00:04:35;;;;;;;12.55;2.17;;;;;;;7.49;100.00;102429.16;4962019;28;20460;-78
2023/05/18 00:07:05;;;;;;;9.77;1.95;;;;;;;7.43;100.00;102427.56;4967370;28;20066;-78
2023/05/18 00:09:33;;;;;;;11.95;2.13;;;;;;;7.46;100.00;102437.44;4946801;28;20034;-78
2023/05/18 00:12:00;;;;;;;24.45;2.83;;;;;;;7.46;100.00;102443.81;4985222;28;20030;-77
2023/05/18 00:14:26;;;;;;;15.82;2.38;;;;;;;7.43;100.00;102437.56;4953340;28;20023;-77
2023/05/18 00:16:55;;;;;;;9.15;2.25;;;;;;;7.44;100.00;102444.81;4943139;28;20051;-78
2023/05/18 00:19:22;;;;;;;12.93;2.40;;;;;;;7.31;100.00;102438.97;4937925;28;20093;-77
2023/05/18 00:21:50;;;;;;;9.80;1.98;;;;;;;7.22;100.00;102442.94;4928665;28;20477;-77
2023/05/18 00:24:16;;;;;;;7.78;1.98;;;;;;;7.17;100.00;102437.66;4930604;28;20097;-77
2023/05/18 00:26:43;;;;;;;13.82;3.70;;;;;;;7.06;100.00;102422.72;4941867;28;20032;-78
2023/05/18 00:29:09;;;;;;;7.30;2.25;;;;;;;7.21;100.00;102443.88;4940944;29;20040;-76
2023/05/18 00:31:37;;;;;;;8.55;2.10;;;;;;;7.23;100.00;102447.47;4954009;28;20030;-77
2023/05/18 00:34:03;;;;;;;7.10;2.08;;;;;;;7.18;100.00;102444.00;4934873;28;20042;-77
2023/05/18 00:36:30;;;;;;;5.53;2.25;;;;;;;6.96;100.00;102436.66;4928251;28;20654;-78
2023/05/18 00:38:56;;;;;;;9.27;2.28;;;;;;;7.03;100.00;102444.59;4945431;28;20047;-77
2023/05/18 00:41:24;;;;;;;10.90;2.80;;;;;;;6.94;100.00;102443.13;4940704;28;20039;-77
2023/05/18 00:43:49;;;;;;;12.32;3.03;;;;;;;6.96;100.00;102439.38;4959470;28;20082;-77
2023/05/18 00:46:15;;;;;;;15.43;2.80;;;;;;;6.94;100.00;102449.47;4922666;29;20028;-77
2023/05/18 00:48:41;;;;;;;8.45;2.17;;;;;;;6.83;100.00;102432.63;4957075;28;20026;-77
2023/05/18 00:51:08;;;;;;;8.45;2.20;;;;;;;6.74;100.00;102430.25;4959628;28;20050;-77
2023/05/18 00:53:34;;;;;;;12.10;3.17;;;;;;;6.90;100.00;102433.28;4967604;28;20059;-78
2023/05/18 00:56:02;;;;;;;7.55;2.55;;;;;;;7.00;100.00;102451.03;4968134;28;20074;-78
2023/05/18 00:58:28;;;;;;;13.57;3.22;;;;;;;6.93;100.00;102461.28;4936900;28;20459;-78
2023/05/18 01:00:54;;;;;;;12.30;2.45;;;;;;;6.92;100.00;102455.91;4972278;28;20126;-80
2023/05/18 01:03:20;;;;;;;18.35;3.03;;;;;;;6.89;100.00;102445.16;4967961;28;20118;-78
2023/05/18 01:05:54;;;;;;;12.98;2.75;;;;;;;6.81;100.00;102457.19;4969069;28;20038;-79
2023/05/18 01:08:22;;;;;;;10.55;3.22;;;;;;;6.88;100.00;102462.41;4941646;28;20062;-78
2023/05/18 01:10:55;;;;;;;15.35;3.08;;;;;;;6.84;100.00;102447.13;4936066;28;20061;-78
2023/05/18 01:13:28;;;;;;;;;;;;;;;6.73;100.00;102450.28;4953937;28;20031;-79
2023/05/18 01:16:03;;;;;;;16.15;2.65;;;;;;;6.69;100.00;102460.38;4952135;28;19933;-79
2023/05/18 01:18:54;;;;;;;15.70;3.00;;;;;;;6.61;100.00;102449.78;4943452;28;20066;-78
2023/05/18 01:21:52;;;;;;;8.35;3.00;;;;;;;6.56;100.00;102442.72;4941186;28;20054;-78
2023/05/18 01:24:25;;;;;;;4.35;2.60;;;;;;;6.53;100.00;102448.28;4973287;28;20394;-79
2023/05/18 01:26:56;;;;;;;8.75;2.55;;;;;;;6.50;100.00;102457.44;4958523;28;20045;-78
2023/05/18 01:29:24;;;;;;;7.60;2.55;;;;;;;6.47;100.00;102437.63;4951335;28;20047;-79
2023/05/18 01:31:49;;;;;;;20.55;3.63;;;;;;;6.47;100.00;102448.50;4965656;28;20493;-78
2023/05/18 01:34:15;;;;;;;20.05;3.75;;;;;;;6.48;100.00;102448.44;4938708;29;20131;-78
2023/05/18 01:36:40;;;;;;;10.10;2.88;;;;;;;6.41;100.00;102453.22;4956382;28;20035;-78
2023/05/18 01:39:08;;;;;;;9.00;3.30;;;;;;;6.46;100.00;102442.19;4957089;28;20431;-79
2023/05/18 01:41:44;;;;;;;14.25;3.85;;;;;;;6.38;100.00;102447.91;4947113;28;20126;-79
2023/05/18 01:44:25;;;;;;;12.93;4.00;;;;;;;6.45;100.00;102448.56;4973543;28;20581;-78
2023/05/18 01:47:11;;;;;;;7.30;2.65;;;;;;;6.40;100.00;102446.00;4964846;28;20031;-79
2023/05/18 01:49:42;;;;;;;11.90;3.08;;;;;;;6.38;100.00;102452.47;4975860;28;20049;-78
2023/05/18 01:52:15;;;;;;;7.38;2.75;;;;;;;6.35;100.00;102448.00;4970515;28;20038;-78
2023/05/18 01:54:44;;;;;;;13.30;3.08;;;;;;;6.25;100.00;102432.97;4928196;28;20057;-78
2023/05/18 01:57:15;;;;;;;12.13;2.78;;;;;;;6.33;100.00;102440.81;4970305;28;20131;-80
2023/05/18 01:59:41;;;;;;;8.57;2.72;;;;;;;6.31;100.00;102445.44;4948657;28;20070;-79
2023/05/18 02:02:07;;;;;;;10.90;2.88;;;;;;;6.24;100.00;102448.38;4965930;28;20043;-79
2023/05/18 02:04:34;;;;;;;14.82;3.40;;;;;;;6.35;100.00;102452.56;4954186;28;20399;-80
2023/05/18 02:06:59;;;;;;;14.05;3.03;;;;;;;6.18;100.00;102451.31;4940408;28;20051;-79
2023/05/18 02:09:25;;;;;;;13.98;3.58;;;;;;;6.21;100.00;102450.31;4933963;29;20039;-79
2023/05/18 02:11:50;;;;;;;8.35;2.50;;;;;;;6.16;100.00;102447.75;4931428;28;20046;-79
2023/05/18 02:14:16;;;;;;;12.25;3.67;;;;;;;6.12;100.00;102445.22;4947268;28;20035;-79
2023/05/18 02:16:46;;;;;;;13.23;3.10;;;;;;;6.16;100.00;102452.31;4927472;28;20090;-79
2023/05/18 02:19:13;;;;;;;13.43;3.67;;;;;;;6.23;100.00;102453.84;4950691;28;20121;-79
2023/05/18 02:21:40;;;;;;;15.57;4.25;;;;;;;6.18;100.00;102456.78;4962153;28;20486;-79
2023/05/18 02:24:06;;;;;;;10.10;3.25;;;;;;;6.08;100.00;102452.56;4946905;28;20037;-81
2023/05/18 02:26:31;;;;;;;13.25;3.50;;;;;;;6.05;100.00;102458.09;4922052;28;20043;-78
2023/05/18 02:28:57;;;;;;;8.18;2.95;;;;;;;5.80;100.00;102436.28;4979485;28;20106;-80
2023/05/18 02:31:23;;;;;;;11.32;2.92;;;;;;;5.92;100.00;102446.75;4957886;28;20470;-80
2023/05/18 02:33:52;;;;;;;13.13;3.60;;;;;;;5.99;100.00;102451.06;4946195;28;20549;-78
2023/05/18 02:36:17;;;;;;;13.02;3.83;;;;;;;5.94;100.00;102453.03;4942353;28;20382;-78
2023/05/18 02:38:43;;;;;;;13.50;3.88;;;;;;;5.91;100.00;102442.25;4939870;28;20122;-78
2023/05/18 02:41:09;;;;;;;6.65;3.60;;;;;;;5.95;100.00;102449.38;4954921;28;20094;-78
2023/05/18 02:43:35;;;;;;;15.52;3.50;;;;;;;5.87;100.00;102443.28;4944040;29;20039;-78
2023/05/18 02:46:02;;;;;;;11.52;3.28;;;;;;;5.80;100.00;102439.00;4966138;28;20035;-78
2023/05/18 02:48:27;;;;;;;15.65;3.47;;;;;;;5.87;100.00;102438.75;4970047;28;20486;-78
2023/05/18 02:50:53;;;;;;;10.48;3.80;;;;;;;5.83;100.00;102449.78;4958135;28;20027;-78
2023/05/18 02:53:19;;;;;;;13.85;3.80;;;;;;;5.85;100.00;102445.16;4971725;28;20035;-78
2023/05/18 02:55:45;;;;;;;15.23;3.25;;;;;;;5.85;100.00;102448.78;4965817;28;20039;-78
2023/05/18 02:58:14;;;;;;;15.68;3.85;;;;;;;5.80;100.00;102445.31;4972017;28;20049;-79
2023/05/18 03:00:40;;;;;;;14.15;3.45;;;;;;;5.76;100.00;102429.19;4951398;28;20038;-79
2023/05/18 03:03:09;;;;;;;16.88;3.60;;;;;;;5.78;100.00;102439.03;4975744;28;20113;-78
2023/05/18 03:05:35;;;;;;;13.85;4.07;;;;;;;5.67;100.00;102434.00;4938034;29;20150;-77
2023/05/18 03:08:01;;;;;;;9.57;4.18;;;;;;;5.77;100.00;102439.09;4924318;29;20035;-78
2023/05/18 03:10:26;;;;;;;9.48;3.05;;;;;;;5.64;100.00;102425.94;4963818;28;20162;-78
2023/05/18 03:12:52;;;;;;;7.35;3.20;;;;;;;5.64;100.00;102428.66;4929849;28;20517;-78
2023/05/18 03:15:18;;;;;;;10.20;2.90;;;;;;;5.59;100.00;102432.44;4960539;28;20528;-80
2023/05/18 03:17:43;;;;;;;12.65;4.20;;;;;;;5.69;100.00;102429.38;4977419;28;20086;-79
2023/05/18 03:20:10;;;;;;;13.68;3.80;;;;;;;5.68;100.00;102426.72;4959487;28;20039;-79
2023/05/18 03:22:36;;;;;;;11.45;4.72;;;;;;;5.67;100.00;102436.72;4953470;28;20102;-79
2023/05/18 03:25:03;;;;;;;7.68;3.63;;;;;;;5.75;100.00;102435.56;4953063;28;20119;-79
2023/05/18 03:27:29;;;;;;;8.43;3.63;;;;;;;5.61;100.00;102434.19;4947747;28;20045;-77
2023/05/18 03:29:56;;;;;;;11.18;4.40;;;;;;;5.71;100.00;102422.06;4963789;28;20035;-79
2023/05/18 03:32:23;;;;;;;9.95;3.90;;;;;;;5.70;100.00;102435.69;4950967;28;20035;-78
2023/05/18 03:34:50;;;;;;;16.38;3.90;;;;;;;5.73;100.00;102442.88;4965048;28;20443;-79
2023/05/18 03:37:16;;;;;;;11.50;4.20;;;;;;;5.67;100.00;102424.91;4921556;28;20041;-78
2023/05/18 03:39:42;;;;;;;14.27;4.00;;;;;;;5.76;100.00;102421.91;4952365;28;20039;-78
2023/05/18 03:42:07;;;;;;;18.83;4.00;;;;;;;5.75;100.00;102439.16;4922251;28;20067;-78
2023/05/18 03:44:33;;;;;;;10.93;3.92;;;;;;;5.69;100.00;102420.34;4952291;28;20041;-78
2023/05/18 03:46:58;;;;;;;11.57;4.40;;;;;;;5.81;100.00;102427.19;4972390;28;20362;-79
2023/05/18 03:49:24;;;;;;;11.60;4.57;;;;;;;5.76;100.00;102431.91;4958311;28;20070;-78
2023/05/18 03:51:55;;;;;;;8.70;3.90;;;;;;;5.78;100.00;102435.44;4961156;28;20074;-79
2023/05/18 03:54:21;;;;;;;10.63;3.97;;;;;;;5.80;100.00;102442.59;4946944;28;20038;-78
2023/05/18 03:56:47;;;;;;;19.88;4.28;;;;;;;5.67;100.00;102435.78;4940512;29;20050;-79
2023/05/18 03:59:13;;;;;;;11.23;4.30;;;;;;;5.56;100.00;102416.22;4959349;28;20038;-78
2023/05/18 04:01:41;;;;;;;17.08;4.20;;;;;;;5.70;100.00;102442.00;4967512;28;20489;-78
2023/05/18 04:04:07;;;;;;;13.65;4.85;;;;;;;5.82;100.00;102437.09;4942437;28;20038;-80
2023/05/18 04:06:36;;;;;;;9.80;4.38;;;;;;;5.83;100.00;102447.06;4986713;28;20031;-78
2023/05/18 04:09:02;;;;;;;9.63;3.63;;;;;;;5.87;100.00;102443.28;4961724;28;20059;-79
2023/05/18 04:11:27;;;;;;;14.88;4.20;;;;;;;5.83;100.00;102423.47;4980285;28;20073;-78
2023/05/18 04:13:53;;;;;;;9.50;4.63;;;;;;;5.92;100.00;102454.00;4952910;28;20459;-78
2023/05/18 04:16:18;;;;;;;11.00;4.32;;;;;;;5.88;100.00;102451.38;4935687;29;20063;-78
2023/05/18 04:18:44;;;;;;;14.27;4.43;;;;;;;5.98;100.00;102460.16;4941593;28;20038;-78
2023/05/18 04:21:10;;;;;;;15.52;4.57;;;;;;;5.98;100.00;102454.72;4969166;28;20046;-78
2023/05/18 04:23:37;;;;;;;15.65;4.43;;;;;;;6.03;100.00;102455.47;4913891;28;20038;-77
2023/05/18 04:26:07;;;;;;;9.40;3.72;;;;;;;6.15;100.00;102451.44;4945973;29;20046;-78
2023/05/18 04:28:33;;;;;;;8.50;4.30;;;;;;;6.19;100.00;102452.22;4940565;28;20490;-78
2023/05/18 04:31:00;;;;;;;9.55;4.47;;;;;;;6.18;100.00;102461.28;4968215;28;20034;-78
2023/05/18 04:33:27;;;;;;;11.38;4.28;;;;;;;6.23;100.00;102459.31;4950686;28;20536;-78
2023/05/18 04:35:54;;;;;;;8.93;4.05;;;;;;;6.35;100.00;102467.03;4951983;28;20485;-78
2023/05/18 04:38:22;;;;;;;12.50;4.28;;;;;;;6.30;100.00;102450.00;4954274;28;20525;-78
2023/05/18 04:40:52;;;;;;;10.10;3.97;;;;;;;6.46;100.00;102461.22;4967160;28;20378;-78
2023/05/18 04:43:19;;;;;;;7.03;4.18;;;;;;;6.53;100.00;102462.78;4969786;28;20039;-78
2023/05/18 04:45:45;;;;;;;21.17;5.05;;;;;;;6.63;100.00;102472.38;4955887;28;20102;-79
2023/05/18 04:48:12;;;;;;;8.50;3.50;;;;;;;6.70;100.00;102464.88;4924643;28;20125;-79
2023/05/18 04:50:38;;;;;;;16.77;4.43;;;;;;;6.71;100.00;102474.81;4978201;28;20078;-80
2023/05/18 04:53:06;;;;;;;14.57;4.20;;;;;;;6.67;100.00;102467.69;4944982;28;20051;-79
2023/05/18 04:55:32;;;;;;;13.48;3.60;;;;;;;6.91;100.00;102479.53;4966676;28;20031;-80
2023/05/18 04:57:59;;;;;;;14.38;3.50;;;;;;;6.87;100.00;102480.59;4921373;29;20033;-79
2023/05/18 05:00:27;;;;;;;13.10;3.38;;;;;;;6.99;100.00;102479.25;4970705;28;20554;-80
2023/05/18 05:02:54;;;;;;;13.10;3.40;;;;;;;6.94;100.00;102478.53;4949850;28;20456;-80
2023/05/18 05:05:24;;;;;;;9.50;3.78;;;;;;;7.02;100.00;102486.38;4956321;28;20085;-79
2023/05/18 05:07:51;;;;;;;12.55;3.33;;;;;;;6.99;100.00;102471.06;4951974;28;20859;-81
2023/05/18 05:10:17;;;;;;;13.55;4.00;;;;;;;7.10;100.00;102459.75;4949733;28;20066;-82
2023/05/18 05:12:44;;;;;;;15.40;4.07;;;;;;;7.19;100.00;102478.47;4941423;28;20098;-82
2023/05/18 05:15:09;;;;;;;9.88;3.75;;;;;;;7.05;100.00;102473.56;4974110;28;20039;-83
2023/05/18 05:17:35;;;;;;;8.55;3.15;;;;;;;7.24;100.00;102470.13;4940644;28;20102;-82
2023/05/18 05:20:01;;;;;;;10.50;3.20;;;;;;;7.16;100.00;102468.56;4910961;28;20035;-82
2023/05/18 05:22:26;;;;;;;10.30;3.10;;;;;;;7.32;100.00;102470.72;4938711;29;20035;-82
2023/05/18 05:24:52;;;;;;;21.92;3.88;;;;;;;7.40;100.00;102479.47;4924056;29;20037;-81
2023/05/18 05:27:17;;;;;;;9.15;3.30;;;;;;;7.50;100.00;102471.81;4952944;28;20465;-82
2023/05/18 05:29:46;;;;;;;13.80;3.72;;;;;;;7.54;100.00;102473.47;4941844;28;20466;-82
2023/05/18 05:32:12;;;;;;;18.33;3.53;;;;;;;7.50;100.00;102467.25;4939411;28;20052;-83
2023/05/18 05:34:38;;;;;;;10.65;3.45;;;;;;;7.68;100.00;102492.00;4924529;28;20047;-82
2023/05/18 05:37:04;;;;;;;9.00;3.45;;;;;;;7.73;100.00;102488.13;4956399;28;20186;-82
2023/05/18 05:39:30;;;;;;;9.80;2.92;;;;;;;7.76;100.00;102486.25;4940799;28;20049;-81
2023/05/18 05:41:55;;;;;;;20.52;3.95;;;;;;;7.87;100.00;102487.56;4945135;28;20474;-82
2023/05/18 05:44:21;;;;;;;8.05;3.88;;;;;;;7.95;100.00;102476.31;4936565;28;20028;-83
2023/05/18 05:46:47;;;;;;;17.65;4.25;;;;;;;8.21;100.00;102488.84;4961872;28;20479;-83
2023/05/18 05:49:12;;;;;;;13.40;3.85;;;;;;;8.32;100.00;102491.13;4949364;28;20117;-82
2023/05/18 05:51:38;;;;;;;10.25;3.70;;;;;;;8.51;100.00;102493.09;4948238;28;20066;-82
2023/05/18 05:54:03;;;;;;;10.38;3.38;;;;;;;8.65;100.00;102496.09;4919753;28;20461;-82
2023/05/18 05:56:28;;;;;;;12.60;3.75;;;;;;;8.78;100.00;102490.97;4962101;28;20046;-83
2023/05/18 05:58:54;;;;;;;8.90;3.20;;;;;;;8.78;100.00;102500.03;4977584;28;20493;-82
2023/05/18 06:01:20;;;;;;;15.63;3.50;;;;;;;8.94;100.00;102482.97;4987420;28;20038;-80
2023/05/18 06:03:45;;;;;;;11.75;3.90;;;;;;;9.28;100.00;102492.31;4955009;28;20046;-82
2023/05/18 06:06:12;;;;;;;19.80;3.65;;;;;;;9.53;100.00;102486.56;4951042;28;20058;-82
2023/05/18 06:08:37;;;;;;;16.77;3.08;;;;;;;9.40;100.00;102499.94;4965688;28;20042;-82
2023/05/18 06:11:03;;;;;;;10.45;3.75;;;;;;;9.27;100.00;102488.69;4976856;28;20401;-82
2023/05/18 06:13:28;;;;;;;6.68;3.35;;;;;;;9.22;100.00;102495.34;4977345;28;20042;-81
2023/05/18 06:15:54;;;;;;;11.73;2.85;;;;;;;9.35;100.00;102493.81;4898548;28;20573;-82
2023/05/18 06:18:19;;;;;;;12.35;3.47;;;;;;;9.55;100.00;102492.84;4954299;28;20035;-82
2023/05/18 06:20:45;;;;;;;14.27;3.35;;;;;;;9.60;100.00;102501.72;4919324;28;20042;-80
2023/05/18 06:23:13;;;;;;;18.08;3.15;;;;;;;9.83;100.00;102486.91;4965448;28;20030;-81
2023/05/18 06:25:39;;;;;;;12.57;3.40;;;;;;;9.74;100.00;102492.84;4958995;28;20173;-81
2023/05/18 06:28:04;;;;;;;10.32;3.08;;;;;;;9.88;100.00;102494.88;4960359;28;20039;-81
2023/05/18 06:30:30;;;;;;;13.57;3.00;;;;;;;10.08;100.00;102491.13;4963535;28;20063;-80
2023/05/18 06:32:55;;;;;;;11.38;3.20;;;;;;;10.08;100.00;102494.78;4946467;28;20470;-80
2023/05/18 06:35:22;;;;;;;12.25;2.97;;;;;;;10.17;100.00;102498.91;4951809;28;20105;-80
2023/05/18 06:37:47;;;;;;;14.63;3.17;;;;;;;10.52;100.00;102498.06;4946385;28;20432;-82
2023/05/18 06:40:13;;;;;;;14.68;3.47;;;;;;;10.85;100.00;102500.84;4959171;28;20063;-79
2023/05/18 06:42:38;;;;;;;13.75;3.03;;;;;;;10.85;100.00;102499.03;4936673;28;20039;-81
2023/05/18 06:45:04;;;;;;;14.93;2.88;;;;;;;10.78;100.00;102486.59;4953319;28;20035;-81
2023/05/18 06:47:29;;;;;;;10.00;2.33;;;;;;;10.87;100.00;102501.69;4948510;28;20070;-82
2023/05/18 06:49:55;;;;;;;9.63;2.75;;;;;;;11.15;100.00;102490.09;4960919;28;20110;-81
2023/05/18 06:52:21;;;;;;;8.25;3.80;;;;;;;10.87;100.00;102492.56;4946623;28;20038;-81
2023/05/18 06:54:47;;;;;;;15.63;2.75;;;;;;;10.90;100.00;102506.09;4922559;29;20036;-79
2023/05/18 06:57:12;;;;;;;8.75;3.03;;;;;;;11.33;100.00;102495.50;4968453;28;20038;-80
2023/05/18 06:59:38;;;;;;;10.32;2.53;;;;;;;11.55;100.00;102498.81;4950023;28;20039;-80
2023/05/18 07:02:03;;;;;;;12.48;2.70;;;;;;;11.08;100.00;102507.81;4960715;28;20513;-80
2023/05/18 07:04:29;;;;;;;10.75;2.50;;;;;;;11.15;100.00;102498.31;4957509;28;20118;-80
2023/05/18 07:06:55;;;;;;;13.68;3.03;;;;;;;11.19;100.00;102505.38;4958313;28;20102;-80
2023/05/18 07:09:21;;;;;;;20.65;2.90;;;;;;;10.75;100.00;102499.59;4971728;28;20832;-80
2023/05/18 07:11:47;;;;;;;9.15;3.17;;;;;;;11.00;100.00;102504.63;4966865;28;20035;-81
2023/05/18 07:14:13;;;;;;;13.05;3.10;;;;;;;11.15;100.00;102498.31;4963544;28;20045;-80
2023/05/18 07:16:38;;;;;;;7.72;2.70;;;;;;;11.22;100.00;102507.97;4943057;28;20047;-80
2023/05/18 07:19:04;;;;;;;9.30;2.88;;;;;;;11.26;100.00;102502.31;4957556;28;20035;-80
2023/05/18 07:21:30;;;;;;;15.25;3.03;;;;;;;11.19;100.00;102515.47;4953516;28;20043;-79
2023/05/18 07:23:55;;;;;;;8.50;2.80;;;;;;;11.07;100.00;102516.13;4933231;28;20074;-78
2023/05/18 07:26:21;;;;;;;8.95;2.92;;;;;;;11.00;100.00;102512.84;4954561;28;20394;-81
2023/05/18 07:28:47;;;;;;;16.98;2.45;;;;;;;11.32;100.00;102519.31;4937255;29;20067;-79
2023/05/18 07:31:15;;;;;;;11.07;2.25;;;;;;;11.68;97.78;102525.56;4959761;28;20024;-78
2023/05/18 07:33:41;;;;;;;13.70;2.53;;;;;;;11.99;93.08;102519.22;4941754;28;20039;-78
2023/05/18 07:36:07;;;;;;;14.00;3.63;;;;;;;12.35;93.62;102526.25;4953263;28;20024;-79
2023/05/18 07:38:32;;;;;;;19.33;2.88;;;;;;;12.82;91.19;102522.50;4956035;28;20051;-79
2023/05/18 07:40:58;;;;;;;6.93;2.08;;;;;;;13.46;83.62;102527.66;4955162;28;20042;-79
2023/05/18 07:43:24;;;;;;;6.63;2.30;;;;;;;13.57;84.51;102522.34;4976571;28;20039;-80
2023/05/18 07:45:50;;;;;;;14.77;2.75;;;;;;;14.00;82.89;102513.09;4961819;28;20069;-79
2023/05/18 07:48:15;;;;;;;10.85;2.63;;;;;;;13.95;82.30;102521.72;4899899;28;20039;-80
2023/05/18 07:50:41;;;;;;;6.90;2.28;;;;;;;14.52;79.86;102526.09;4945646;28;20046;-79
2023/05/18 07:53:07;;;;;;;13.63;2.90;;;;;;;14.63;76.64;102519.00;4963860;28;20170;-80
2023/05/18 07:55:32;;;;;;;11.30;2.72;;;;;;;14.66;74.06;102525.19;4927679;28;20040;-79
2023/05/18 07:57:59;;;;;;;14.98;2.78;;;;;;;14.77;75.89;102526.28;4925501;28;20051;-78
2023/05/18 08:00:25;;;;;;;6.80;2.42;;;;;;;15.20;71.33;102526.91;4930648;28;20117;-79
2023/05/18 08:02:51;;;;;;;13.40;2.28;;;;;;;15.26;69.86;102533.84;4940020;29;20036;-79
2023/05/18 08:05:17;;;;;;;11.13;2.55;;;;;;;15.78;69.09;102538.31;4941801;28;20047;-78
2023/05/18 08:07:43;;;;;;;11.05;2.08;;;;;;;15.55;67.07;102528.94;4972072;28;20047;-79
2023/05/18 08:10:09;;;;;;;8.88;2.42;;;;;;;15.90;68.52;102533.75;4972543;28;20043;-78
2023/05/18 08:12:35;;;;;;;13.30;2.35;;;;;;;15.86;68.77;102537.75;4954114;28;20035;-77
2023/05/18 08:15:00;;;;;;;11.10;2.05;;;;;;;16.81;64.72;102537.00;4905673;28;20050;-79
2023/05/18 08:17:26;;;;;;;10.02;2.75;;;;;;;16.72;63.28;102531.19;4949313;28;20507;-80
2023/05/18 08:19:52;;;;;;;8.20;2.13;;;;;;;16.10;63.46;102529.50;4960239;28;20046;-81
2023/05/18 08:22:18;;;;;;;9.13;2.47;;;;;;;16.66;62.33;102523.38;4956852;28;20035;-83
2023/05/18 08:24:44;;;;;;;5.95;1.98;;;;;;;17.20;59.40;102537.59;4982368;28;20497;-80
2023/05/18 08:27:10;;;;;;;11.27;2.33;;;;;;;16.55;63.24;102520.56;4915931;29;20046;-82
2023/05/18 08:29:36;;;;;;;13.23;2.15;;;;;;;16.78;60.45;102526.16;4962288;28;20035;-82
2023/05/18 08:32:02;;;;;;;12.13;2.20;;;;;;;16.79;62.28;102523.28;4974238;28;20098;-82
2023/05/18 08:34:28;;;;;;;9.60;2.55;;;;;;;17.30;57.96;102527.56;4950264;28;20051;-82
2023/05/18 08:36:54;;;;;;;9.10;1.67;;;;;;;16.62;60.32;102526.50;4930756;28;20065;-82
2023/05/18 08:39:21;;;;;;;10.13;1.92;;;;;;;17.24;62.08;102519.75;4975153;28;20039;-82
2023/05/18 08:42:00;;;;;;;9.48;2.00;;;;;;;17.29;58.05;102516.63;4937013;28;20078;-82
2023/05/18 08:45:25;;;;;;;11.85;2.30;;;;;;;16.99;58.92;102527.25;4936821;28;20046;-81
2023/05/18 08:47:53;;;;;;;12.07;2.17;;;;;;;17.62;59.02;102516.59;4905796;28;20543;-82
2023/05/18 08:50:19;;;;;;;7.28;2.08;;;;;;;17.71;57.06;102514.97;4971850;28;20023;-81
2023/05/18 08:52:53;;;;;;;12.52;1.92;;;;;;;17.53;55.14;102517.38;4966395;28;20027;-82
2023/05/18 08:55:19;;;;;;;17.23;2.17;;;;;;;17.23;54.60;102512.44;4966932;28;20035;-82
2023/05/18 08:57:54;;;;;;;10.20;2.10;;;;;;;16.90;54.53;102512.28;4940335;29;20129;-83
2023/05/18 09:00:21;;;;;;;12.75;1.80;;;;;;;17.23;54.76;102520.75;4969824;28;20069;-83
2023/05/18 09:02:47;;;;;;;12.95;2.80;;;;;;;16.51;55.53;102516.25;4951567;28;20034;-84
2023/05/18 09:05:14;;;;;;;9.80;3.00;;;;;;;16.66;56.68;102505.88;4981135;28;20026;-84
2023/05/18 09:07:41;;;;;;;10.80;2.17;;;;;;;17.18;56.67;102500.88;4981252;28;20031;-83
2023/05/18 09:10:09;;;;;;;15.88;2.42;;;;;;;16.51;56.38;102506.09;4979087;28;20043;-83
2023/05/18 09:12:35;;;;;;;9.85;2.60;;;;;;;16.37;56.91;102508.16;4959939;28;20090;-82
2023/05/18 09:15:01;;;;;;;12.52;2.60;;;;;;;15.34;59.88;102500.16;4928945;28;20023;-81
2023/05/18 09:17:27;;;;;;;10.52;3.28;;;;;;;15.71;60.93;102508.47;4970191;28;20057;-82
2023/05/18 09:19:52;;;;;;;11.55;2.50;;;;;;;16.46;58.84;102510.19;4971767;28;20039;-81
2023/05/18 09:22:18;;;;;;;12.15;2.65;;;;;;;16.61;59.91;102503.50;4945612;28;20078;-82
2023/05/18 09:24:44;;;;;;;16.67;2.50;;;;;;;15.92;59.79;102506.91;4952796;28;20536;-82
2023/05/18 09:27:10;;;;;;;11.95;2.50;;;;;;;16.52;58.94;102502.31;4976768;28;20103;-79
2023/05/18 09:29:49;;;;;;;10.63;2.63;;;;;;;16.22;58.97;102496.41;4949508;28;20039;-82
2023/05/18 09:32:15;;;;;;;11.15;2.28;;;;;;;17.03;57.66;102497.44;4956202;28;20501;-79
2023/05/18 09:34:41;;;;;;;9.48;2.70;;;;;;;16.35;59.61;102492.56;4969926;28;20035;-80
2023/05/18 09:37:08;;;;;;;10.73;2.80;;;;;;;16.61;56.88;102494.28;4955596;29;20042;-82
2023/05/18 09:39:33;;;;;;;10.80;2.78;;;;;;;16.94;57.27;102499.09;4987647;28;20023;-82
2023/05/18 09:42:02;;;;;;;7.53;2.35;;;;;;;17.79;55.69;102490.28;4966557;28;20573;-81
2023/05/18 09:44:31;;;;;;;7.75;1.92;;;;;;;17.19;54.85;102497.97;4969543;28;20106;-80
2023/05/18 09:46:56;;;;;;;12.73;2.20;;;;;;;16.35;57.36;102495.34;4942746;28;20039;-81
2023/05/18 09:49:22;;;;;;;10.77;2.97;;;;;;;15.87;59.55;102489.81;4971013;28;20038;-81
2023/05/18 09:51:47;;;;;;;9.88;2.90;;;;;;;15.88;58.30;102493.44;4984843;28;20041;-80
2023/05/18 09:54:13;;;;;;;18.50;2.97;;;;;;;16.04;58.58;102487.66;4910271;28;20405;-79
2023/05/18 09:56:38;;;;;;;10.10;2.50;;;;;;;16.79;56.91;102495.63;4963305;28;20070;-80
2023/05/18 09:59:09;;;;;;;6.95;2.08;;;;;;;16.73;55.66;102491.44;4956134;28;20397;-79
2023/05/18 10:01:35;;;;;;;13.18;2.45;;;;;;;16.65;56.17;102496.69;4957208;28;20500;-80
2023/05/18 10:04:04;;;;;;;12.90;2.50;;;;;;;16.66;54.94;102487.41;4974537;28;20114;-82
2023/05/18 10:06:30;;;;;;;12.27;2.63;;;;;;;15.87;55.47;102492.59;4936028;28;20398;-82
2023/05/18 10:08:57;;;;;;;8.50;2.10;;;;;;;15.49;59.21;102489.88;4971763;28;20030;-83
2023/05/18 10:11:23;;;;;;;6.75;2.10;;;;;;;16.03;58.36;102495.03;4938557;28;20503;-82
2023/05/18 10:13:54;;;;;;;9.75;2.72;;;;;;;16.54;56.94;102492.03;4958111;28;20043;-82
2023/05/18 10:16:19;;;;;;;12.15;2.45;;;;;;;16.57;53.77;102481.72;4958094;28;20046;-79
2023/05/18 10:18:47;;;;;;;9.77;2.22;;;;;;;16.48;57.13;102480.56;4932893;28;20145;-82
2023/05/18 10:21:14;;;;;;;9.10;2.40;;;;;;;16.29;54.39;102490.28;4943520;29;20093;-82
2023/05/18 10:23:40;;;;;;;10.18;2.10;;;;;;;17.03;52.01;102489.16;4965374;28;20043;-82
2023/05/18 10:26:08;;;;;;;11.77;2.35;;;;;;;16.97;50.72;102479.47;4962703;28;20096;-82
2023/05/18 10:28:48;;;;;;;12.32;2.83;;;;;;;16.46;56.57;102477.03;4957066;28;20822;-81
2023/05/18 10:31:18;;;;;;;9.85;2.20;;;;;;;16.61;54.38;102459.25;4952987;28;20066;-81
2023/05/18 10:33:45;;;;;;;14.52;3.03;;;;;;;16.46;54.32;102464.09;4979479;28;20041;-81
2023/05/18 10:36:15;;;;;;;12.25;2.83;;;;;;;17.07;56.94;102461.09;4952597;28;20039;-80
2023/05/18 10:38:44;;;;;;;8.85;2.17;;;;;;;17.13;53.79;102458.84;4947359;28;20142;-79
2023/05/18 10:41:11;;;;;;;13.10;3.05;;;;;;;17.35;55.81;102463.50;4938238;28;20030;-80
2023/05/18 10:43:37;;;;;;;15.15;2.80;;;;;;;17.01;53.19;102464.38;4988797;28;20041;-79
2023/05/18 10:46:06;;;;;;;5.93;2.55;;;;;;;16.62;52.26;102468.41;4971166;28;20043;-80
2023/05/18 10:48:37;;;;;;;9.73;1.90;;;;;;;17.08;51.93;102457.31;4943045;28;20453;-80
2023/05/18 10:51:05;;;;;;;8.65;2.58;;;;;;;16.27;54.42;102456.34;4962034;28;20042;-79
2023/05/18 10:53:32;;;;;;;5.15;2.15;;;;;;;16.64;55.03;102464.53;4959293;28;20022;-79
2023/05/18 10:55:57;;;;;;;7.75;2.22;;;;;;;16.79;51.87;102451.38;4956456;28;20090;-80
2023/05/18 10:58:28;;;;;;;14.60;2.65;;;;;;;16.78;52.53;102462.56;4935799;28;20026;-80
2023/05/18 11:01:02;;;;;;;9.10;2.40;;;;;;;17.40;53.85;102456.56;4970837;28;20046;-80
2023/05/18 11:03:27;;;;;;;9.13;2.63;;;;;;;16.73;53.26;102454.59;4934324;29;20067;-80
2023/05/18 11:06:11;;;;;;;8.27;2.50;;;;;;;16.30;53.34;102444.19;4968187;28;20035;-81
2023/05/18 11:08:46;;;;;;;9.15;2.45;;;;;;;16.97;54.64;102454.56;4939545;29;20039;-80
2023/05/18 11:11:12;;;;;;;12.38;2.35;;;;;;;16.67;54.84;102457.84;4969176;28;20470;-80
2023/05/18 11:13:44;;;;;;;7.75;2.45;;;;;;;16.65;52.74;102460.75;4970278;28;20548;-78
2023/05/18 11:16:14;;;;;;;11.23;2.85;;;;;;;16.58;53.52;102450.28;4962530;28;20066;-79
2023/05/18 11:18:51;;;;;;;10.38;2.55;;;;;;;16.25;55.54;102450.06;4954505;28;20030;-79
2023/05/18 11:21:20;;;;;;;10.48;2.95;;;;;;;16.71;55.25;102443.66;4958873;28;20067;-79